Time;durP1;ratioP1;P1;durP2;ratioP2;P2;SDS_P1;SDS_P2;PMS_P1;PMS_P2;Temp;Humidity;BMP_temperature;BMP_pressure;BME280_temperature;BME280_humidity;BME280_pressure;Samples;Min_cycle;Max_cycle;Signal;HPM_P1;HPM_P2
2023/03/20 00:04:11;;;;;;;24.75;15.15;;;15.30;82.70;;;;;;5070771;28;20981;-81
2023/03/20 00:06:37;;;;;;;19.88;14.35;;;15.30;82.60;;;;;;5069469;28;20475;-82
2023/03/20 00:09:03;;;;;;;22.17;14.30;;;15.20;82.40;;;;;;5071286;28;20027;-82
2023/03/20 00:11:39;;;;;;;19.38;13.52;;;15.20;82.70;;;;;;5070406;28;20025;-81
2023/03/20 00:14:12;;;;;;;21.17;13.23;;;15.20;82.70;;;;;;5070930;28;20475;-81
2023/03/20 00:16:40;;;;;;;23.45;12.57;;;15.20;83.50;;;;;;5070013;28;20032;-80
2023/03/20 00:19:13;;;;;;;24.98;11.90;;;15.20;83.10;;;;;;5070054;28;20047;-82
2023/03/20 00:21:39;;;;;;;17.92;11.05;;;15.20;83.40;;;;;;5069120;28;20060;-82
2023/03/20 00:24:06;;;;;;;19.98;11.02;;;15.10;83.50;;;;;;5069990;28;20378;-81
2023/03/20 00:26:34;;;;;;;16.13;10.02;;;15.10;83.70;;;;;;5064310;28;20079;-82
2023/03/20 00:29:02;;;;;;;26.02;11.27;;;15.10;83.80;;;;;;5049598;28;20444;-81
2023/03/20 00:31:31;;;;;;;18.45;10.52;;;15.10;84.10;;;;;;5048752;28;20040;-82
2023/03/20 00:33:59;;;;;;;20.13;10.95;;;15.10;84.10;;;;;;5049164;28;20014;-82
2023/03/20 00:36:25;;;;;;;18.88;10.32;;;15.10;84.00;;;;;;5049424;28;20081;-82
2023/03/20 00:38:51;;;;;;;19.92;10.35;;;15.20;84.40;;;;;;5049049;28;20103;-81
2023/03/20 00:41:24;;;;;;;19.20;10.38;;;15.20;84.30;;;;;;5049627;28;20025;-82
2023/03/20 00:43:57;;;;;;;18.98;10.70;;;15.20;84.30;;;;;;5051248;28;20511;-81
2023/03/20 00:46:23;;;;;;;20.65;11.13;;;15.20;84.30;;;;;;5050840;28;20025;-81
2023/03/20 00:48:49;;;;;;;20.40;11.18;;;15.20;84.50;;;;;;5049278;28;20021;-80
2023/03/20 00:51:15;;;;;;;19.45;10.02;;;15.20;84.50;;;;;;5049135;28;20342;-79
2023/03/20 00:53:41;;;;;;;18.70;10.70;;;15.20;84.60;;;;;;5047607;28;20025;-81
2023/03/20 00:56:27;;;;;;;20.27;10.98;;;15.20;84.60;;;;;;5049166;28;20031;-81
2023/03/20 00:58:53;;;;;;;18.60;10.77;;;15.20;84.60;;;;;;5049707;28;20032;-80
2023/03/20 01:01:19;;;;;;;19.63;10.82;;;15.20;84.70;;;;;;5049257;28;20104;-81
2023/03/20 01:03:45;;;;;;;17.73;11.40;;;15.20;84.80;;;;;;5065220;28;20127;-75
2023/03/20 01:06:12;;;;;;;25.77;12.15;;;15.20;84.90;;;;;;5067703;28;20075;-81
2023/03/20 01:08:38;;;;;;;20.15;12.02;;;15.20;84.90;;;;;;5067886;28;20025;-81
2023/03/20 01:11:04;;;;;;;18.55;9.82;;;15.10;84.90;;;;;;5068992;28;20024;-82
2023/03/20 01:13:31;;;;;;;28.02;11.60;;;15.10;85.00;;;;;;5066580;28;20021;-82
2023/03/20 01:15:57;;;;;;;26.52;13.20;;;15.10;84.90;;;;;;5055975;28;20480;-82
2023/03/20 01:18:25;;;;;;;27.48;14.15;;;15.10;85.00;;;;;;5055487;28;20024;-82
2023/03/20 01:20:54;;;;;;;26.05;13.98;;;15.10;85.00;;;;;;5055474;28;20036;-82
2023/03/20 01:23:21;;;;;;;22.98;12.07;;;15.10;85.50;;;;;;5056146;28;20037;-81
2023/03/20 01:25:48;;;;;;;21.98;14.63;;;15.10;85.00;;;;;;5054295;28;20036;-81
2023/03/20 01:28:22;;;;;;;20.08;12.20;;;15.00;85.10;;;;;;5057748;28;20028;-81
2023/03/20 01:30:49;;;;;;;21.90;13.20;;;15.00;85.20;;;;;;5060061;28;20384;-81
2023/03/20 01:33:18;;;;;;;20.83;14.23;;;15.00;84.90;;;;;;5059922;28;20021;-81
2023/03/20 01:35:45;;;;;;;22.45;13.48;;;15.00;85.00;;;;;;5060062;28;20063;-81
2023/03/20 01:38:32;;;;;;;18.98;13.02;;;15.00;84.70;;;;;;5059645;28;20078;-81
2023/03/20 01:41:07;;;;;;;23.08;12.48;;;14.90;84.60;;;;;;5060098;28;20072;-80
2023/03/20 01:43:34;;;;;;;21.00;13.07;;;14.90;85.40;;;;;;5059697;28;20040;-82
2023/03/20 01:46:24;;;;;;;23.63;14.23;;;14.90;84.60;;;;;;5055129;28;20731;-81
2023/03/20 01:48:49;;;;;;;22.08;14.73;;;14.90;85.00;;;;;;5055312;28;20025;-81
2023/03/20 01:51:20;;;;;;;21.23;13.63;;;14.90;84.20;;;;;;5054968;28;20526;-80
2023/03/20 01:53:50;;;;;;;22.85;13.90;;;14.90;84.20;;;;;;5054707;28;20117;-80
2023/03/20 01:56:18;;;;;;;20.55;14.23;;;14.90;84.00;;;;;;5054433;28;20029;-82
2023/03/20 01:58:49;;;;;;;29.50;14.45;;;14.90;83.90;;;;;;5054562;28;20025;-80
2023/03/20 02:01:15;;;;;;;19.77;14.25;;;14.90;84.20;;;;;;5053898;28;20100;-80
2023/03/20 02:03:46;;;;;;;18.77;13.55;;;14.90;84.10;;;;;;5033736;28;20049;-81
2023/03/20 02:06:12;;;;;;;22.63;13.27;;;15.00;84.10;;;;;;5034252;28;20393;-81
2023/03/20 02:08:49;;;;;;;20.75;13.23;;;15.00;84.20;;;;;;5034122;28;20026;-82
2023/03/20 02:11:19;;;;;;;23.08;12.73;;;14.90;84.30;;;;;;5033975;28;20033;-80
2023/03/20 02:13:46;;;;;;;24.85;13.63;;;14.90;84.30;;;;;;5035942;28;20104;-81
2023/03/20 02:16:14;;;;;;;23.35;12.85;;;14.90;84.30;;;;;;5037746;28;20036;-81
2023/03/20 02:18:43;;;;;;;21.48;13.07;;;14.90;84.40;;;;;;5034068;28;20465;-81
2023/03/20 02:21:21;;;;;;;20.73;13.00;;;14.90;84.40;;;;;;5033998;28;20022;-81
2023/03/20 02:23:52;;;;;;;19.35;12.30;;;14.90;85.10;;;;;;5034000;28;20059;-80
2023/03/20 02:26:39;;;;;;;17.80;12.70;;;14.90;85.10;;;;;;5032837;28;20105;-81
2023/03/20 02:30:15;;;;;;;38.10;27.48;;;14.90;85.20;;;;;;5033875;28;20033;-80
2023/03/20 02:33:02;;;;;;;23.85;13.13;;;14.90;85.10;;;;;;4999029;28;20037;-80
2023/03/20 02:35:46;;;;;;;21.33;12.00;;;14.90;85.00;;;;;;5031135;28;20444;-81
2023/03/20 02:38:15;;;;;;;;;;;14.90;84.50;;;;;;5032549;28;20061;-81
2023/03/20 02:40:59;;;;;;;20.75;11.63;;;14.90;84.50;;;;;;5033593;28;20353;-81
2023/03/20 02:43:27;;;;;;;;;;;14.90;83.60;;;;;;5048605;28;20052;-80
2023/03/20 02:45:59;;;;;;;13.80;9.95;;;14.80;83.90;;;;;;5053713;28;19912;-82
2023/03/20 02:48:30;;;;;;;16.23;10.32;;;14.80;83.10;;;;;;5051852;28;20068;-80
2023/03/20 02:51:23;;;;;;;17.55;9.85;;;14.80;83.50;;;;;;5053302;28;20098;-82
2023/03/20 02:54:04;;;;;;;16.67;9.07;;;14.80;82.90;;;;;;5053151;28;20487;-82
2023/03/20 02:56:43;;;;;;;17.25;9.77;;;14.80;82.60;;;;;;5055092;28;20369;-81
2023/03/20 02:59:43;;;;;;;16.23;9.85;;;14.80;82.30;;;;;;5055308;28;20032;-81
2023/03/20 03:02:19;;;;;;;16.50;11.27;;;14.80;82.00;;;;;;5055557;28;20052;-80
2023/03/20 03:04:53;;;;;;;22.90;11.20;;;14.80;81.70;;;;;;5051843;28;20465;-82
2023/03/20 03:07:23;;;;;;;18.80;11.32;;;14.80;81.40;;;;;;5053247;28;20357;-80
2023/03/20 03:09:54;;;;;;;22.30;12.40;;;14.80;81.30;;;;;;5052905;28;20028;-80
2023/03/20 03:12:30;;;;;;;20.65;12.40;;;14.80;81.10;;;;;;5052824;28;20029;-81
2023/03/20 03:15:00;;;;;;;17.08;10.95;;;14.80;81.00;;;;;;5052809;28;20116;-80
2023/03/20 03:17:31;;;;;;;16.50;11.70;;;14.80;81.20;;;;;;5052751;28;20036;-80
2023/03/20 03:20:01;;;;;;;19.45;11.10;;;14.80;81.10;;;;;;5052348;28;20021;-81
2023/03/20 03:22:27;;;;;;;17.95;11.45;;;14.80;80.90;;;;;;5052515;28;20424;-80
2023/03/20 03:24:53;;;;;;;19.98;11.85;;;14.80;80.90;;;;;;5052541;28;20018;-78
2023/03/20 03:27:24;;;;;;;17.35;11.35;;;14.80;80.90;;;;;;5052889;28;20141;-81
2023/03/20 03:30:00;;;;;;;22.85;11.57;;;14.80;80.90;;;;;;5052860;28;20024;-79
2023/03/20 03:32:34;;;;;;;20.42;10.75;;;14.80;81.20;;;;;;5052781;28;20421;-81
2023/03/20 03:35:01;;;;;;;15.02;10.20;;;14.80;80.70;;;;;;5052310;28;20048;-80
2023/03/20 03:37:39;;;;;;;23.40;10.75;;;14.80;80.60;;;;;;5052532;28;20115;-80
2023/03/20 03:40:30;;;;;;;17.30;9.02;;;14.80;80.50;;;;;;5052531;28;20016;-81
2023/03/20 03:43:04;;;;;;;17.55;7.82;;;14.80;80.20;;;;;;5050949;28;20370;-81
2023/03/20 03:45:36;;;;;;;14.68;8.05;;;14.80;80.00;;;;;;5054270;28;20021;-81
2023/03/20 03:48:10;;;;;;;21.02;9.05;;;14.80;79.70;;;;;;5057342;28;20058;-81
2023/03/20 03:50:47;;;;;;;18.98;8.30;;;14.80;79.60;;;;;;5055345;28;20018;-81
2023/03/20 03:53:17;;;;;;;18.08;8.10;;;14.80;79.60;;;;;;5054013;28;20025;-80
2023/03/20 03:55:48;;;;;;;19.15;7.40;;;14.80;79.70;;;;;;5053569;28;20377;-80
2023/03/20 03:58:23;;;;;;;12.32;5.75;;;14.80;79.50;;;;;;5053959;28;20017;-80
2023/03/20 04:00:51;;;;;;;11.65;5.40;;;14.80;79.20;;;;;;5070132;28;20076;-82
2023/03/20 04:03:20;;;;;;;12.13;5.07;;;14.80;78.90;;;;;;5070089;28;20512;-80
2023/03/20 04:05:48;;;;;;;14.60;6.47;;;14.80;78.90;;;;;;5053253;28;20021;-80
2023/03/20 04:08:15;;;;;;;11.43;6.85;;;14.80;78.70;;;;;;5052729;28;20044;-80
2023/03/20 04:10:41;;;;;;;15.00;7.30;;;14.80;78.80;;;;;;5052566;28;20057;-79
2023/03/20 04:13:06;;;;;;;15.93;7.40;;;14.80;79.00;;;;;;5052228;28;20554;-82
2023/03/20 04:15:32;;;;;;;18.67;7.20;;;14.80;78.80;;;;;;5051991;28;20059;-80
2023/03/20 04:17:58;;;;;;;13.73;6.55;;;14.90;78.90;;;;;;5052254;28;20094;-80
2023/03/20 04:20:24;;;;;;;15.65;7.88;;;14.80;78.80;;;;;;5052077;28;20123;-81
2023/03/20 04:22:50;;;;;;;14.80;7.28;;;14.80;78.70;;;;;;5052132;28;20033;-82
2023/03/20 04:25:19;;;;;;;16.40;8.90;;;14.80;78.70;;;;;;5052356;28;20040;-81
2023/03/20 04:27:44;;;;;;;15.23;7.93;;;14.80;78.90;;;;;;5052158;28;20083;-81
2023/03/20 04:30:11;;;;;;;19.10;7.68;;;14.80;79.00;;;;;;5052209;28;20124;-81
2023/03/20 04:32:37;;;;;;;17.73;8.70;;;14.80;78.90;;;;;;5055439;28;20025;-81
2023/03/20 04:35:03;;;;;;;13.75;8.80;;;14.80;79.00;;;;;;5054622;28;20032;-80
2023/03/20 04:37:29;;;;;;;17.42;9.30;;;14.80;78.90;;;;;;5051147;28;20396;-81
2023/03/20 04:39:55;;;;;;;22.73;10.88;;;14.80;79.00;;;;;;5052022;28;20024;-81
2023/03/20 04:42:20;;;;;;;13.95;9.75;;;14.80;79.10;;;;;;5052495;28;20033;-81
2023/03/20 04:44:46;;;;;;;17.40;11.30;;;14.80;79.10;;;;;;5052054;28;20071;-81
2023/03/20 04:47:12;;;;;;;17.55;10.32;;;14.80;79.20;;;;;;5051778;28;20473;-80
2023/03/20 04:49:37;;;;;;;20.92;12.52;;;14.80;79.40;;;;;;5053801;28;20114;-82
2023/03/20 04:52:03;;;;;;;24.67;11.85;;;14.70;79.20;;;;;;5054869;28;20353;-81
2023/03/20 04:54:29;;;;;;;21.23;11.80;;;14.70;79.50;;;;;;5057931;28;20029;-81
2023/03/20 04:56:55;;;;;;;20.98;13.68;;;14.70;79.50;;;;;;5054412;28;20036;-81
2023/03/20 04:59:20;;;;;;;22.80;12.18;;;14.70;79.50;;;;;;5054336;28;20021;-81
2023/03/20 05:01:46;;;;;;;17.55;11.50;;;14.70;79.60;;;;;;5055327;28;20569;-80
2023/03/20 05:04:12;;;;;;;18.77;11.32;;;14.70;79.40;;;;;;5055311;28;20035;-81
2023/03/20 05:06:38;;;;;;;18.95;11.15;;;14.70;79.60;;;;;;5055328;28;20060;-80
2023/03/20 05:09:04;;;;;;;21.80;12.02;;;14.70;79.50;;;;;;5055459;28;20025;-80
2023/03/20 05:11:30;;;;;;;18.33;12.25;;;14.70;79.60;;;;;;5055445;28;20055;-81
2023/03/20 05:13:55;;;;;;;22.95;12.93;;;14.60;79.70;;;;;;5055272;28;20056;-80
2023/03/20 05:16:21;;;;;;;20.92;13.05;;;14.60;79.80;;;;;;5055076;28;20025;-80
2023/03/20 05:18:47;;;;;;;21.60;13.00;;;14.60;79.90;;;;;;5057090;28;20400;-82
2023/03/20 05:21:13;;;;;;;21.17;12.13;;;14.60;79.90;;;;;;5056487;28;20554;-81
2023/03/20 05:23:39;;;;;;;21.30;12.18;;;14.70;80.00;;;;;;5055373;28;20036;-82
2023/03/20 05:26:05;;;;;;;21.95;12.98;;;14.70;80.20;;;;;;5055258;28;20120;-81
2023/03/20 05:28:31;;;;;;;23.38;14.00;;;14.70;80.10;;;;;;5054919;28;20037;-81
2023/03/20 05:30:56;;;;;;;21.48;13.50;;;14.70;80.40;;;;;;5054907;28;20115;-82
2023/03/20 05:33:22;;;;;;;23.42;13.88;;;14.70;80.30;;;;;;5054907;28;20036;-81
2023/03/20 05:35:48;;;;;;;21.55;12.73;;;14.70;80.60;;;;;;5055303;28;20029;-81
2023/03/20 05:38:14;;;;;;;20.15;11.45;;;14.70;80.70;;;;;;5054585;28;20106;-81
2023/03/20 05:40:43;;;;;;;18.40;11.25;;;14.60;80.70;;;;;;5054724;28;20098;-81
2023/03/20 05:43:08;;;;;;;13.68;9.23;;;14.60;80.80;;;;;;5053226;28;20155;-80
2023/03/20 05:45:34;;;;;;;21.00;8.40;;;14.60;80.80;;;;;;5054829;28;20104;-81
2023/03/20 05:48:00;;;;;;;15.15;8.23;;;14.60;80.80;;;;;;5054783;28;20448;-82
2023/03/20 05:50:26;;;;;;;20.20;7.93;;;14.60;80.50;;;;;;5054833;28;20075;-82
2023/03/20 05:52:51;;;;;;;17.38;8.10;;;14.60;80.60;;;;;;5054352;28;20091;-82
2023/03/20 05:55:17;;;;;;;16.33;8.20;;;14.60;80.50;;;;;;5054446;28;20033;-81
2023/03/20 05:57:43;;;;;;;20.80;8.60;;;14.50;80.60;;;;;;5054786;28;20060;-81
2023/03/20 06:00:09;;;;;;;16.17;8.20;;;14.50;81.00;;;;;;5054443;28;20096;-81
2023/03/20 06:02:36;;;;;;;13.27;8.10;;;14.40;81.10;;;;;;5054559;28;20056;-81
2023/03/20 06:05:02;;;;;;;14.80;7.65;;;14.40;81.10;;;;;;5057364;28;20074;-82
2023/03/20 06:07:28;;;;;;;16.85;8.18;;;14.40;81.40;;;;;;5056561;28;20098;-82
2023/03/20 06:09:54;;;;;;;12.48;7.80;;;14.40;81.70;;;;;;5053979;28;20063;-82
2023/03/20 06:12:20;;;;;;;18.27;7.93;;;14.40;81.60;;;;;;5054535;28;20017;-83
2023/03/20 06:14:46;;;;;;;13.27;7.43;;;14.40;82.00;;;;;;5054140;28;20103;-81
2023/03/20 06:17:11;;;;;;;16.80;7.95;;;14.40;82.10;;;;;;5054097;28;20405;-82
2023/03/20 06:19:37;;;;;;;12.20;6.75;;;14.40;82.50;;;;;;5054147;28;20017;-80
2023/03/20 06:22:03;;;;;;;14.50;6.85;;;14.30;82.30;;;;;;5053928;28;20033;-82
2023/03/20 06:24:29;;;;;;;12.88;7.20;;;14.30;82.90;;;;;;5054192;28;20473;-82
2023/03/20 06:26:55;;;;;;;16.48;6.95;;;14.20;82.90;;;;;;5053783;28;20111;-82
2023/03/20 06:29:21;;;;;;;12.63;7.22;;;14.20;83.50;;;;;;5053719;28;20024;-81
2023/03/20 06:31:47;;;;;;;14.20;7.03;;;14.20;83.80;;;;;;5053717;28;20430;-80
2023/03/20 06:34:12;;;;;;;17.38;7.22;;;14.30;83.80;;;;;;5054355;28;20117;-81
2023/03/20 06:36:38;;;;;;;15.55;6.45;;;14.30;84.40;;;;;;5054638;28;20048;-82
2023/03/20 06:39:04;;;;;;;13.40;7.07;;;14.30;84.20;;;;;;5054512;28;20059;-82
2023/03/20 06:41:30;;;;;;;15.88;9.00;;;14.30;84.50;;;;;;5052746;28;20491;-82
2023/03/20 06:43:55;;;;;;;14.63;7.97;;;14.40;84.50;;;;;;5054048;28;20408;-83
2023/03/20 06:46:21;;;;;;;14.43;7.55;;;14.40;84.50;;;;;;5053878;28;20013;-82
2023/03/20 06:48:47;;;;;;;15.00;8.23;;;14.40;84.80;;;;;;5058246;28;20477;-82
2023/03/20 06:51:14;;;;;;;14.48;6.72;;;14.40;84.70;;;;;;5055014;28;20025;-82
2023/03/20 06:53:42;;;;;;;14.32;7.22;;;14.40;85.20;;;;;;5054216;28;20025;-81
2023/03/20 06:56:12;;;;;;;16.75;7.00;;;14.50;85.30;;;;;;5053725;28;20101;-84
2023/03/20 06:58:38;;;;;;;16.75;7.47;;;14.50;85.50;;;;;;5053834;28;20033;-80
2023/03/20 07:01:19;;;;;;;14.57;7.32;;;14.50;85.60;;;;;;5053711;28;20025;-82
2023/03/20 07:03:45;;;;;;;14.57;7.18;;;14.60;85.80;;;;;;5053364;28;20060;-78
2023/03/20 07:06:12;;;;;;;13.20;6.75;;;14.60;85.70;;;;;;5053301;28;20377;-78
2023/03/20 07:08:38;;;;;;;13.35;6.70;;;14.60;85.50;;;;;;5052515;28;20021;-81
2023/03/20 07:11:05;;;;;;;13.25;6.93;;;14.70;85.50;;;;;;5039815;28;20159;-79
2023/03/20 07:13:31;;;;;;;15.88;7.95;;;14.70;85.50;;;;;;5052618;28;20029;-84
2023/03/20 07:15:59;;;;;;;17.60;9.07;;;14.60;85.60;;;;;;5053284;28;20024;-78
2023/03/20 07:18:24;;;;;;;17.30;7.97;;;14.60;85.90;;;;;;5052894;28;20055;-79
2023/03/20 07:20:52;;;;;;;18.77;7.90;;;14.60;86.10;;;;;;5042170;28;20021;-78
2023/03/20 07:23:18;;;;;;;18.02;8.73;;;14.70;86.60;;;;;;5053053;28;20095;-79
2023/03/20 07:25:44;;;;;;;17.30;8.77;;;14.70;87.00;;;;;;5052847;28;20485;-81
2023/03/20 07:28:10;;;;;;;15.23;8.10;;;14.70;87.60;;;;;;5052671;28;20025;-78
2023/03/20 07:30:36;;;;;;;15.50;7.70;;;14.80;87.40;;;;;;5041914;28;20033;-83
2023/03/20 07:33:02;;;;;;;11.45;7.00;;;14.80;87.40;;;;;;5052792;28;20094;-77
2023/03/20 07:35:28;;;;;;;16.33;7.35;;;14.80;87.60;;;;;;5055055;28;20079;-77
2023/03/20 07:37:53;;;;;;;12.98;7.28;;;14.90;87.30;;;;;;5052454;28;20112;-78
2023/03/20 07:40:19;;;;;;;32.47;7.72;;;14.90;87.00;;;;;;5040353;28;20036;-79
2023/03/20 07:42:46;;;;;;;14.00;6.75;;;14.90;86.30;;;;;;5051852;28;20086;-79
2023/03/20 07:45:13;;;;;;;11.98;5.70;;;15.00;85.50;;;;;;5052678;28;20069;-78
2023/03/20 07:47:39;;;;;;;11.60;5.88;;;15.00;84.90;;;;;;5052353;28;20025;-79
2023/03/20 07:50:05;;;;;;;14.38;5.60;;;15.10;84.50;;;;;;5040987;28;20476;-78
2023/03/20 07:52:31;;;;;;;12.82;5.47;;;15.10;84.00;;;;;;5049241;28;20032;-81
2023/03/20 07:54:57;;;;;;;11.18;5.65;;;15.10;83.50;;;;;;5053111;28;20072;-81
2023/03/20 07:57:22;;;;;;;14.45;5.88;;;15.10;83.50;;;;;;5061999;28;20021;-78
2023/03/20 07:59:48;;;;;;;14.40;6.30;;;15.10;83.20;;;;;;5056382;28;20388;-80
2023/03/20 08:02:15;;;;;;;8.95;5.15;;;15.10;83.10;;;;;;5052096;28;20053;-77
2023/03/20 08:04:41;;;;;;;13.55;5.82;;;15.20;83.10;;;;;;5052373;28;20429;-77
2023/03/20 08:07:07;;;;;;;14.80;6.75;;;15.20;83.00;;;;;;5052420;28;20051;-78
2023/03/20 08:09:32;;;;;;;14.93;6.95;;;15.20;83.30;;;;;;5049515;28;20485;-78
2023/03/20 08:11:58;;;;;;;12.73;6.93;;;15.20;83.40;;;;;;5049212;28;20465;-78
2023/03/20 08:14:24;;;;;;;15.13;7.05;;;15.20;83.50;;;;;;5052860;28;20021;-78
2023/03/20 08:16:49;;;;;;;15.95;6.93;;;15.20;83.70;;;;;;5055936;28;20054;-78
2023/03/20 08:19:15;;;;;;;12.50;6.20;;;15.20;83.80;;;;;;5051179;28;20100;-81
2023/03/20 08:21:41;;;;;;;16.20;7.15;;;15.20;83.80;;;;;;5049716;28;20032;-80
2023/03/20 08:24:07;;;;;;;13.02;6.38;;;15.10;84.00;;;;;;5053680;28;20045;-86
2023/03/20 08:26:33;;;;;;;12.13;6.57;;;15.20;84.10;;;;;;5055050;28;20048;-82
2023/03/20 08:28:59;;;;;;;12.02;6.70;;;15.20;84.10;;;;;;5044365;28;20110;-87
2023/03/20 08:31:24;;;;;;;16.92;7.55;;;15.20;84.10;;;;;;5045957;28;20026;-88
2023/03/20 08:33:50;;;;;;;15.27;6.72;;;15.20;84.00;;;;;;5050381;28;20047;-84
2023/03/20 08:36:20;;;;;;;13.43;7.30;;;15.20;83.80;;;;;;5056143;28;20091;-83
2023/03/20 08:38:48;;;;;;;17.45;7.65;;;15.30;84.00;;;;;;5057782;28;20499;-86
2023/03/20 08:41:14;;;;;;;15.77;7.40;;;15.30;83.60;;;;;;5054488;28;20028;-88
2023/03/20 08:43:39;;;;;;;20.38;8.10;;;15.40;83.70;;;;;;5057852;28;20033;-83
2023/03/20 08:46:06;;;;;;;18.70;7.65;;;15.40;83.50;;;;;;5057678;28;20028;-86
2023/03/20 08:48:32;;;;;;;16.90;7.68;;;15.50;83.60;;;;;;5057622;28;20041;-81
2023/03/20 08:50:58;;;;;;;17.00;8.27;;;15.50;83.60;;;;;;5054327;28;20017;-83
2023/03/20 08:53:24;;;;;;;19.27;8.60;;;15.50;83.50;;;;;;5052604;28;20033;-83
2023/03/20 08:55:51;;;;;;;20.83;8.18;;;15.40;83.60;;;;;;5051293;28;20107;-84
2023/03/20 08:58:17;;;;;;;16.70;7.65;;;15.50;83.70;;;;;;5062481;28;20050;-86
2023/03/20 09:00:44;;;;;;;14.45;7.50;;;15.50;83.60;;;;;;5055383;28;20052;-85
2023/03/20 09:03:14;;;;;;;17.08;8.07;;;15.50;83.80;;;;;;5057184;28;20059;-85
2023/03/20 09:05:42;;;;;;;15.25;7.85;;;15.50;83.70;;;;;;5056882;28;20480;-87
2023/03/20 09:08:08;;;;;;;16.45;7.15;;;15.50;83.80;;;;;;5049347;28;20059;-89
2023/03/20 09:10:34;;;;;;;19.20;7.85;;;15.50;84.00;;;;;;5047599;28;20025;-91
2023/03/20 09:13:00;;;;;;;16.50;7.30;;;15.50;83.90;;;;;;5060570;28;20032;-90
2023/03/20 09:15:26;;;;;;;23.80;7.93;;;15.60;83.80;;;;;;5054278;28;20435;-86
2023/03/20 09:17:52;;;;;;;20.42;8.32;;;15.60;83.70;;;;;;5056443;28;20457;-85
2023/03/20 09:20:18;;;;;;;18.05;9.57;;;15.70;83.60;;;;;;5054258;28;20036;-89
2023/03/20 09:22:44;;;;;;;20.38;14.00;;;15.70;83.70;;;;;;5058458;28;20120;-89
2023/03/20 09:25:10;;;;;;;17.70;13.15;;;15.70;83.40;;;;;;5058369;28;20029;-85
2023/03/20 09:27:37;;;;;;;15.85;10.77;;;15.70;83.20;;;;;;5060591;28;20051;-87
2023/03/20 09:30:07;;;;;;;14.82;9.32;;;15.70;83.00;;;;;;5063236;28;20123;-83
2023/03/20 09:32:34;;;;;;;15.93;7.88;;;15.70;83.50;;;;;;5035935;28;20057;-83
2023/03/20 09:35:01;;;;;;;15.93;6.57;;;15.70;83.00;;;;;;5046955;28;20055;-81
2023/03/20 09:37:26;;;;;;;14.63;6.38;;;15.70;82.70;;;;;;5055248;28;20096;-81
2023/03/20 09:39:52;;;;;;;13.48;6.07;;;15.70;82.80;;;;;;5053199;28;20063;-80
2023/03/20 09:42:54;;;;;;;14.95;5.93;;;15.80;82.80;;;;;;5053299;28;20094;-80
2023/03/20 09:45:36;;;;;;;17.05;6.32;;;15.80;83.20;;;;;;5045398;28;20032;-80
2023/03/20 09:48:41;;;;;;;13.68;5.82;;;15.80;83.20;;;;;;5054196;28;20025;-81
2023/03/20 09:51:18;;;;;;;13.48;5.57;;;15.90;82.60;;;;;;5039434;28;20374;-81
2023/03/20 09:53:49;;;;;;;10.90;6.43;;;15.90;83.00;;;;;;5052549;28;20031;-75
2023/03/20 09:56:26;;;;;;;12.75;4.90;;;16.00;82.60;;;;;;5053729;28;20480;-80
2023/03/20 09:58:57;;;;;;;10.65;5.20;;;16.00;82.30;;;;;;5054342;28;20033;-79
2023/03/20 10:01:29;;;;;;;14.32;5.53;;;16.00;82.30;;;;;;5048056;28;20051;-81
2023/03/20 10:04:08;;;;;;;15.60;5.88;;;16.00;82.20;;;;;;5054093;28;20049;-83
2023/03/20 10:06:34;;;;;;;11.25;5.97;;;16.10;82.50;;;;;;5054187;28;20082;-82
2023/03/20 10:09:06;;;;;;;15.35;5.90;;;16.10;82.60;;;;;;5052490;28;20032;-78
2023/03/20 10:11:43;;;;;;;17.30;5.65;;;16.20;82.70;;;;;;5049351;28;20056;-77
2023/03/20 10:14:17;;;;;;;11.10;5.68;;;16.20;82.90;;;;;;5053659;28;20044;-78
2023/03/20 10:17:01;;;;;;;;;;;16.20;82.70;;;;;;5054113;28;20409;-75
2023/03/20 10:19:30;;;;;;;11.48;5.95;;;16.20;83.50;;;;;;5051025;28;19921;-75
2023/03/20 10:22:16;;;;;;;17.23;5.85;;;16.20;82.80;;;;;;5050627;28;20080;-76
2023/03/20 10:24:49;;;;;;;10.45;5.38;;;16.20;82.90;;;;;;5053926;28;20163;-84
2023/03/20 10:27:22;;;;;;;15.57;6.05;;;16.30;82.80;;;;;;5055664;28;20021;-80
2023/03/20 10:30:20;;;;;;;12.20;5.20;;;16.30;82.90;;;;;;5052480;28;20033;-78
2023/03/20 10:33:16;;;;;;;14.45;5.03;;;16.40;83.00;;;;;;5033917;28;20033;-80
2023/03/20 10:36:24;;;;;;;14.30;5.05;;;16.40;82.90;;;;;;5044278;28;20044;-78
2023/03/20 10:39:03;;;;;;;14.60;5.22;;;16.40;82.90;;;;;;5032404;28;20041;-78
2023/03/20 10:41:33;;;;;;;9.60;4.53;;;16.40;82.90;;;;;;5049335;28;20029;-77
2023/03/20 10:44:01;;;;;;;8.63;4.40;;;16.40;82.80;;;;;;5052754;28;20443;-79
2023/03/20 10:46:31;;;;;;;11.88;4.50;;;16.40;82.70;;;;;;5032491;28;20022;-80
2023/03/20 10:49:10;;;;;;;10.68;4.97;;;16.40;82.60;;;;;;5032676;28;20383;-80
2023/03/20 10:51:45;;;;;;;10.93;4.45;;;16.50;83.00;;;;;;5049633;28;20029;-80
2023/03/20 10:54:33;;;;;;;13.85;5.75;;;16.60;82.70;;;;;;5053340;28;20580;-79
2023/03/20 10:57:00;;;;;;;12.60;5.10;;;16.60;82.80;;;;;;5049631;28;20051;-78
2023/03/20 10:59:41;;;;;;;10.20;5.38;;;16.70;82.40;;;;;;5050858;28;20057;-78
2023/03/20 11:02:12;;;;;;;11.27;5.90;;;16.70;82.40;;;;;;5050139;28;20041;-79
2023/03/20 11:04:38;;;;;;;12.27;5.97;;;16.60;82.40;;;;;;5053013;28;20021;-80
2023/03/20 11:07:25;;;;;;;10.65;5.82;;;16.60;82.80;;;;;;5050962;28;20139;-81
2023/03/20 11:10:13;;;;;;;11.48;6.60;;;16.60;82.90;;;;;;5051362;28;20036;-78
2023/03/20 11:12:40;;;;;;;16.25;7.03;;;16.50;83.10;;;;;;5053165;28;20488;-77
2023/03/20 11:15:30;;;;;;;15.02;7.38;;;16.50;83.30;;;;;;5047706;28;20040;-76
2023/03/20 11:17:59;;;;;;;11.77;7.15;;;16.50;83.90;;;;;;5032230;28;20384;-77
2023/03/20 11:20:26;;;;;;;13.02;7.28;;;16.50;83.60;;;;;;5039106;28;20045;-75
2023/03/20 11:23:02;;;;;;;9.35;4.93;;;16.60;83.60;;;;;;5049861;28;20085;-77
2023/03/20 11:25:31;;;;;;;10.10;4.80;;;16.50;83.20;;;;;;5042112;28;20037;-75
2023/03/20 11:28:18;;;;;;;7.32;3.88;;;16.40;82.70;;;;;;5052372;28;20365;-77
2023/03/20 11:30:44;;;;;;;10.75;3.90;;;16.40;82.60;;;;;;5046761;28;20028;-78
2023/03/20 11:33:10;;;;;;;8.05;4.10;;;16.50;82.20;;;;;;5051599;28;20544;-79
2023/03/20 11:35:35;;;;;;;9.00;4.50;;;16.50;81.90;;;;;;5053098;28;20099;-81
2023/03/20 11:38:19;;;;;;;9.15;4.20;;;16.60;81.40;;;;;;5053254;28;20021;-81
2023/03/20 11:40:51;;;;;;;10.57;4.50;;;16.70;81.10;;;;;;5047948;28;20029;-79
2023/03/20 11:43:27;;;;;;;8.65;4.78;;;16.60;81.20;;;;;;5052700;28;20037;-83
2023/03/20 11:46:03;;;;;;;9.30;5.50;;;16.50;81.50;;;;;;5045847;28;20056;-77
2023/03/20 11:48:45;;;;;;;8.88;5.80;;;16.40;81.70;;;;;;5048045;28;20362;-77
2023/03/20 11:51:18;;;;;;;10.30;6.13;;;16.20;82.00;;;;;;5045505;28;20045;-78
2023/03/20 11:53:47;;;;;;;12.25;5.93;;;16.10;82.10;;;;;;5053232;28;20028;-80
2023/03/20 11:56:12;;;;;;;10.07;5.90;;;16.20;82.40;;;;;;5052032;28;20533;-79
2023/03/20 11:58:53;;;;;;;7.63;4.20;;;16.20;82.50;;;;;;5043767;28;20108;-76
2023/03/20 12:01:21;;;;;;;7.00;3.40;;;16.30;82.40;;;;;;5041586;28;20037;-77
2023/03/20 12:04:08;;;;;;;8.15;4.10;;;16.40;81.90;;;;;;5051481;28;20130;-78
2023/03/20 12:06:43;;;;;;;9.85;3.70;;;16.40;81.70;;;;;;5050058;28;20036;-76
2023/03/20 12:09:15;;;;;;;8.18;3.35;;;16.40;81.40;;;;;;5031499;28;20118;-76
2023/03/20 12:12:25;;;;;;;9.40;4.20;;;16.40;81.40;;;;;;5046578;28;20504;-76
2023/03/20 12:15:08;;;;;;;7.07;4.00;;;16.50;81.40;;;;;;5009893;28;20033;-79
2023/03/20 12:17:43;;;;;;;6.40;3.20;;;16.50;81.30;;;;;;5013109;28;20030;-77
2023/03/20 12:20:22;;;;;;;5.90;3.47;;;16.50;81.20;;;;;;5039634;28;20047;-80
2023/03/20 12:22:58;;;;;;;4.88;2.47;;;16.40;81.20;;;;;;5054480;28;20032;-80
2023/03/20 12:25:27;;;;;;;5.63;2.40;;;16.40;81.40;;;;;;5054658;28;20031;-80
2023/03/20 12:28:37;;;;;;;5.47;2.65;;;16.30;81.30;;;;;;5052779;28;20029;-79
2023/03/20 12:31:15;;;;;;;5.70;2.38;;;16.30;81.20;;;;;;5043071;28;20049;-79
2023/03/20 12:34:00;;;;;;;9.55;3.45;;;16.30;81.10;;;;;;5052914;28;20064;-76
2023/03/20 12:36:49;;;;;;;6.47;2.67;;;16.20;81.20;;;;;;5050500;28;20113;-80
2023/03/20 12:39:18;;;;;;;7.07;2.10;;;16.30;81.40;;;;;;5041520;28;20035;-80
2023/03/20 12:42:21;;;;;;;5.18;2.40;;;16.30;81.00;;;;;;5063979;28;20044;-80
2023/03/20 12:45:08;;;;;;;9.18;3.15;;;16.40;80.90;;;;;;5072368;28;20396;-84
2023/03/20 12:47:49;;;;;;;6.13;2.70;;;16.30;80.90;;;;;;5071958;28;20175;-80
2023/03/20 12:50:45;;;;;;;6.65;2.97;;;16.30;80.90;;;;;;5059002;28;20041;-81
2023/03/20 12:53:33;;;;;;;8.18;2.55;;;16.20;81.30;;;;;;5046478;28;20536;-77
2023/03/20 12:56:16;;;;;;;6.88;3.40;;;16.20;81.10;;;;;;5047510;28;20029;-79
2023/03/20 12:59:12;;;;;;;12.63;5.05;;;16.20;81.60;;;;;;5051691;28;20104;-85